createdAt,value
2019-04-23T00:00:13.954Z,11.9100
2019-04-23T00:01:28.456Z,11.8112
2019-04-23T00:02:30.128Z,11.6537
2019-04-23T00:03:34.534Z,11.5122
2019-04-23T00:06:00.526Z,11.6110
2019-04-23T00:07:09.255Z,11.3306
2019-04-23T00:08:09.699Z,11.4294
2019-04-23T00:09:20.511Z,11.6831
2019-04-23T00:10:30.049Z,11.7845
2019-04-23T00:11:35.754Z,11.8833
2019-04-23T00:13:49.823Z,12.1637
2019-04-23T00:15:04.399Z,12.0809
2019-04-23T00:16:18.630Z,12.0943
2019-04-23T00:17:19.284Z,11.8967
2019-04-23T00:18:26.526Z,11.7845
2019-04-23T00:19:32.958Z,11.5709
2019-04-23T00:20:33.989Z,11.4000
2019-04-23T00:21:49.989Z,11.5415
2019-04-23T00:26:25.263Z,11.8540
2019-04-23T00:27:29.518Z,11.5709
2019-04-23T00:28:38.958Z,11.4988
2019-04-23T00:29:48.463Z,11.1757
2019-04-23T00:30:55.043Z,10.9327
2019-04-23T00:32:05.061Z,11.3439
2019-04-23T00:33:12.058Z,11.4855
2019-04-23T00:34:28.069Z,11.5549
2019-04-23T00:35:18.164Z,11.3733
2019-04-23T00:36:32.498Z,11.2024
2019-04-23T00:37:35.310Z,11.3733
2019-04-23T00:38:45.169Z,11.2184
2019-04-23T00:39:52.845Z,11.3172
2019-04-23T00:41:02.876Z,11.3306
2019-04-23T00:42:15.482Z,11.4561
2019-04-23T00:44:33.583Z,11.4988
2019-04-23T00:45:41.137Z,11.5415
2019-04-23T00:46:43.473Z,11.4988
2019-04-23T00:47:52.655Z,11.5843
2019-04-23T00:51:09.989Z,11.5976
2019-04-23T00:52:28.920Z,11.6831
2019-04-23T00:53:28.316Z,11.6403
2019-04-23T00:54:39.220Z,11.5122
2019-04-23T00:58:10.776Z,11.4134
2019-04-23T00:59:12.574Z,11.3573
2019-04-23T01:00:32.142Z,11.1757
2019-04-23T01:01:41.321Z,11.1757
2019-04-23T01:02:36.952Z,11.2585
2019-04-23T01:03:39.485Z,11.2184
2019-04-23T01:04:56.437Z,11.4427
2019-04-23T01:06:02.724Z,11.5415
2019-04-23T01:07:14.734Z,11.4000
2019-04-23T01:08:20.127Z,11.6270
2019-04-23T01:10:41.419Z,11.3172
2019-04-23T01:11:41.914Z,11.1330
2019-04-23T01:12:51.487Z,11.0315
2019-04-23T01:14:04.348Z,11.0903
2019-04-23T01:15:04.669Z,11.0021
2019-04-23T01:16:13.153Z,10.9754
2019-04-23T01:17:30.209Z,11.1463
2019-04-23T01:18:45.284Z,10.9888
2019-04-23T01:19:41.870Z,11.0021
2019-04-23T01:20:44.179Z,10.9033
2019-04-23T01:21:32.535Z,10.9033
2019-04-23T01:22:35.718Z,11.0903
2019-04-23T01:23:45.869Z,11.0903
2019-04-23T01:24:48.227Z,10.9754
2019-04-23T01:26:00.271Z,10.8045
2019-04-23T01:27:39.312Z,10.7912
2019-04-23T01:28:39.631Z,10.6790
2019-04-23T01:29:42.534Z,10.6657
2019-04-23T01:32:02.790Z,10.6924
2019-04-23T01:33:10.992Z,10.7218
2019-04-23T01:34:19.759Z,10.6497
2019-04-23T01:35:18.908Z,10.6230
2019-04-23T01:37:43.255Z,10.6924
2019-04-23T01:38:55.687Z,10.6924
2019-04-23T01:39:58.169Z,10.7218
2019-04-23T01:41:00.367Z,10.6497
2019-04-23T01:42:22.472Z,10.5669
2019-04-23T01:43:19.657Z,10.5081
2019-04-23T01:44:31.345Z,10.6230
2019-04-23T01:45:42.123Z,10.7645
2019-04-23T01:46:45.416Z,10.5802
2019-04-23T01:47:50.042Z,10.5241
2019-04-23T01:49:02.121Z,10.4253
2019-04-23T01:51:06.288Z,10.2678
2019-04-23T01:52:25.002Z,10.4948
2019-04-23T01:53:37.076Z,10.2811
2019-04-23T01:54:37.102Z,10.3693
2019-04-23T01:55:46.543Z,10.4814
2019-04-23T01:56:56.613Z,10.6230
2019-04-23T01:58:24.015Z,10.6363
2019-04-23T01:59:11.985Z,10.5081
2019-04-23T02:00:22.822Z,10.4948
2019-04-23T02:01:44.604Z,10.3826
2019-04-23T02:02:47.659Z,10.4387
2019-04-23T02:03:46.986Z,10.3105
2019-04-23T02:04:53.787Z,10.0542
2019-04-23T02:06:00.027Z,10.4681
2019-04-23T02:07:11.297Z,10.7351
2019-04-23T02:08:15.647Z,10.7057
2019-04-23T02:09:24.998Z,10.7057
2019-04-23T02:10:41.596Z,10.5669
2019-04-23T02:11:40.290Z,10.3239
2019-04-23T02:13:56.801Z,10.3105
2019-04-23T02:15:05.113Z,10.5669
2019-04-23T02:16:15.255Z,10.5669
2019-04-23T02:17:21.956Z,10.7485
2019-04-23T02:18:33.913Z,10.4948
2019-04-23T02:19:40.483Z,10.5081
2019-04-23T02:21:55.111Z,10.7057
2019-04-23T02:24:06.729Z,10.6657
2019-04-23T02:25:25.106Z,10.3372
2019-04-23T02:26:41.715Z,10.2945
2019-04-23T02:27:36.109Z,10.4948
2019-04-23T02:28:49.629Z,10.3506
2019-04-23T02:30:05.799Z,10.3239
2019-04-23T02:32:09.227Z,10.6790
2019-04-23T02:33:31.978Z,10.6497
2019-04-23T02:34:47.191Z,10.5802
2019-04-23T02:35:50.576Z,10.3693
2019-04-23T02:36:48.814Z,10.1823
2019-04-23T02:40:26.691Z,10.5802
2019-04-23T02:43:00.892Z,10.4681
2019-04-23T02:43:22.011Z,10.6657
2019-04-23T02:45:56.413Z,10.8206
2019-04-23T02:48:10.514Z,10.4387
2019-04-23T02:50:34.943Z,10.7057
2019-04-23T02:51:30.877Z,10.2678
2019-04-23T02:53:53.513Z,10.1823
2019-04-23T02:54:58.600Z,10.5669
2019-04-23T02:56:24.135Z,10.4520
2019-04-23T02:57:08.812Z,10.3239
2019-04-23T02:58:18.567Z,10.2518
2019-04-23T02:59:34.507Z,10.3506
2019-04-23T03:01:39.987Z,10.9594
2019-04-23T03:04:02.324Z,10.7218
2019-04-23T03:05:19.903Z,10.6230
2019-04-23T03:06:16.698Z,10.5936
2019-04-23T03:08:32.499Z,10.6924
2019-04-23T03:10:55.630Z,10.6924
2019-04-23T03:12:00.723Z,10.4520
2019-04-23T03:13:10.227Z,10.6924
2019-04-23T03:14:16.875Z,10.6069
2019-04-23T03:15:35.515Z,10.5081
2019-04-23T03:17:36.055Z,10.7218
2019-04-23T03:18:49.304Z,10.9033
2019-04-23T03:22:14.975Z,10.5802
2019-04-23T03:23:29.178Z,10.5241
2019-04-23T03:24:38.877Z,10.6363
2019-04-23T03:25:46.074Z,10.6924
2019-04-23T03:26:47.837Z,10.8339
2019-04-23T03:27:41.599Z,10.9194
2019-04-23T03:29:04.355Z,10.6230
2019-04-23T03:30:15.770Z,10.8473
2019-04-23T03:38:16.551Z,11.3172
2019-04-23T03:38:56.610Z,11.3012
2019-04-23T03:43:49.070Z,11.0315
2019-04-23T03:45:00.770Z,11.0903
2019-04-23T03:47:13.817Z,11.0475
2019-04-23T03:49:19.550Z,11.1757
2019-04-23T03:51:43.411Z,11.3172
2019-04-23T03:52:50.621Z,11.1891
2019-04-23T03:54:11.653Z,11.1036
2019-04-23T03:55:03.704Z,11.2024
2019-04-23T03:56:25.469Z,11.1036
2019-04-23T03:58:28.180Z,11.0769
2019-04-23T04:00:58.050Z,11.0182
2019-04-23T04:02:03.492Z,11.1330
2019-04-23T04:04:24.740Z,11.0903
2019-04-23T04:05:23.999Z,11.0021
2019-04-23T04:07:37.546Z,10.8473
2019-04-23T04:08:33.892Z,10.9033
2019-04-23T04:09:47.638Z,10.9194
2019-04-23T04:12:04.462Z,10.8045
2019-04-23T04:13:15.860Z,10.7912
2019-04-23T04:15:46.202Z,10.8900
2019-04-23T04:16:51.681Z,10.7912
2019-04-23T04:17:48.541Z,10.8473
2019-04-23T04:18:54.646Z,10.9033
2019-04-23T04:20:11.050Z,10.8900
2019-04-23T04:23:33.473Z,10.5669
2019-04-23T04:24:34.659Z,10.5936
2019-04-23T04:25:49.866Z,10.6657
2019-04-23T04:28:03.491Z,10.9754
2019-04-23T04:29:19.433Z,10.9594
2019-04-23T04:30:10.724Z,10.8766
2019-04-23T04:31:21.038Z,10.8766
2019-04-23T04:32:38.300Z,10.8473
2019-04-23T04:33:56.000Z,10.6790
2019-04-23T04:35:58.473Z,10.6230
2019-04-23T04:37:35.197Z,10.5936
2019-04-23T04:38:25.725Z,10.6363
2019-04-23T04:39:19.682Z,10.6790
2019-04-23T04:41:39.963Z,10.7912
2019-04-23T04:42:41.899Z,10.8473
2019-04-23T04:45:09.631Z,10.8633
2019-04-23T04:46:25.380Z,10.7218
2019-04-23T04:47:21.519Z,10.8473
2019-04-23T04:48:26.086Z,10.8206
2019-04-23T04:50:45.849Z,10.7645
2019-04-23T04:53:00.749Z,10.5669
2019-04-23T04:54:17.845Z,10.5375
2019-04-23T04:55:12.940Z,10.4948
2019-04-23T04:56:20.935Z,10.4681
2019-04-23T04:58:43.261Z,10.2518
2019-04-23T04:59:50.947Z,10.1957
2019-04-23T05:01:04.081Z,10.2945
2019-04-23T05:02:09.668Z,10.4520
2019-04-23T05:04:19.833Z,10.5669
2019-04-23T05:06:01.761Z,10.5802
2019-04-23T05:06:39.407Z,10.6069
2019-04-23T05:07:40.487Z,10.6790
2019-04-23T05:10:12.751Z,10.5802
2019-04-23T05:11:11.335Z,10.5802
2019-04-23T05:12:18.359Z,10.5669
2019-04-23T05:16:47.035Z,10.6069
2019-04-23T05:19:02.517Z,10.5669
2019-04-23T05:20:05.642Z,10.5669
2019-04-23T05:21:12.053Z,10.6790
2019-04-23T05:22:22.518Z,10.6497
2019-04-23T05:23:28.143Z,10.7057
2019-04-23T05:24:37.056Z,10.6790
2019-04-23T05:25:47.816Z,10.6657
2019-04-23T05:26:48.126Z,10.7485
2019-04-23T05:29:15.227Z,10.7218
2019-04-23T05:32:32.939Z,10.6657
2019-04-23T05:33:39.106Z,10.5669
2019-04-23T05:34:46.687Z,10.6069
2019-04-23T05:38:37.696Z,10.8206
2019-04-23T05:40:42.843Z,10.8900
2019-04-23T05:41:36.805Z,10.9194
2019-04-23T05:42:49.377Z,10.8900
2019-04-23T05:43:57.361Z,10.8339
2019-04-23T05:46:19.822Z,10.8206
2019-04-23T05:47:20.308Z,10.7912
2019-04-23T05:48:23.408Z,10.7778
2019-04-23T05:49:31.274Z,10.8473
2019-04-23T05:50:53.901Z,10.8206
2019-04-23T05:52:59.273Z,10.9327
2019-04-23T05:54:08.472Z,10.9461
2019-04-23T05:55:13.649Z,10.9888
2019-04-23T05:56:21.392Z,11.1196
2019-04-23T05:57:19.813Z,11.0475
2019-04-23T05:59:51.714Z,10.9754
2019-04-23T06:01:26.374Z,10.8900
2019-04-23T06:05:37.088Z,11.1757
2019-04-23T06:06:45.182Z,11.2879
2019-04-23T06:08:53.362Z,11.1036
2019-04-23T06:10:00.576Z,11.1196
2019-04-23T06:11:08.544Z,11.1196
2019-04-23T06:12:16.842Z,11.1597
2019-04-23T06:13:26.338Z,11.3172
2019-04-23T06:14:35.682Z,11.3867
2019-04-23T06:15:36.916Z,11.3439
2019-04-23T06:16:55.242Z,11.3733
2019-04-23T06:18:02.309Z,11.3867
2019-04-23T06:19:09.604Z,11.3733
2019-04-23T06:21:24.142Z,11.4134
2019-04-23T06:22:48.106Z,11.4855
2019-04-23T06:23:50.108Z,11.4855
2019-04-23T06:24:41.080Z,11.5282
2019-04-23T06:26:19.856Z,11.5976
2019-04-23T06:27:01.727Z,11.6964
2019-04-23T06:29:20.540Z,11.7845
2019-04-23T06:30:27.834Z,11.8112
2019-04-23T06:31:38.067Z,11.8833
2019-04-23T06:32:37.582Z,11.9528
2019-04-23T06:33:52.332Z,11.9955
2019-04-23T06:34:52.823Z,12.0382
2019-04-23T06:36:06.584Z,12.0249
2019-04-23T06:37:08.976Z,12.0382
2019-04-23T06:39:29.259Z,12.0382
2019-04-23T06:40:34.078Z,12.1077
2019-04-23T06:41:49.944Z,12.1370
2019-04-23T06:42:53.135Z,12.1797
2019-04-23T06:44:05.845Z,12.2065
2019-04-23T06:45:06.325Z,12.2358
2019-04-23T06:46:19.990Z,12.3346
2019-04-23T06:47:23.521Z,12.3774
2019-04-23T06:48:35.230Z,12.4361
2019-04-23T06:49:49.523Z,12.4788
2019-04-23T06:51:04.654Z,12.4361
2019-04-23T06:53:00.629Z,12.4628
2019-04-23T06:54:13.450Z,12.4788
2019-04-23T06:55:20.389Z,12.4788
2019-04-23T06:56:35.182Z,12.5776
2019-04-23T06:57:41.145Z,12.5616
2019-04-23T06:58:43.965Z,12.6177
2019-04-23T06:59:52.533Z,12.6337
2019-04-23T07:01:00.399Z,12.6898
2019-04-23T07:02:17.238Z,12.7592
2019-04-23T07:03:23.322Z,12.8153
2019-04-23T07:04:28.648Z,12.9435
2019-04-23T07:05:39.350Z,12.9702
2019-04-23T07:06:47.160Z,12.9862
2019-04-23T07:07:50.037Z,13.1144
2019-04-23T07:09:07.802Z,13.1571
2019-04-23T07:10:07.251Z,13.2425
2019-04-23T07:11:23.394Z,13.2986
2019-04-23T07:12:25.770Z,13.4241
2019-04-23T07:13:40.185Z,13.4241
2019-04-23T07:14:44.152Z,13.3547
2019-04-23T07:16:52.649Z,13.3413
2019-04-23T07:18:03.980Z,13.3120
2019-04-23T07:19:18.599Z,13.3841
2019-04-23T07:20:25.236Z,13.3680
2019-04-23T07:21:29.544Z,13.3253
2019-04-23T07:22:53.880Z,13.3120
2019-04-23T07:23:53.884Z,13.3680
2019-04-23T07:24:50.912Z,13.4108
2019-04-23T07:26:14.082Z,13.3841
2019-04-23T07:27:04.830Z,13.4108
2019-04-23T07:28:21.424Z,13.4241
2019-04-23T07:29:26.307Z,13.3680
2019-04-23T07:30:33.314Z,13.2265
2019-04-23T07:31:44.487Z,13.1571
2019-04-23T07:32:52.582Z,13.1571
2019-04-23T07:35:07.115Z,13.2559
2019-04-23T07:36:17.190Z,13.3120
2019-04-23T07:37:17.614Z,13.3120
2019-04-23T07:38:40.912Z,13.3841
2019-04-23T07:39:45.630Z,13.3680
2019-04-23T07:40:40.479Z,13.2853
2019-04-23T07:43:03.474Z,13.2986
2019-04-23T07:44:20.738Z,13.3974
2019-04-23T07:46:38.334Z,13.5096
2019-04-23T07:47:55.303Z,13.4962
2019-04-23T07:48:37.233Z,13.5657
2019-04-23T07:50:04.979Z,13.5817
2019-04-23T07:51:06.485Z,13.4962
2019-04-23T07:52:18.008Z,13.5389
2019-04-23T07:55:43.594Z,13.7633
2019-04-23T07:56:45.960Z,13.9208
2019-04-23T07:57:52.373Z,14.0623
2019-04-23T07:58:57.688Z,14.1344
2019-04-23T08:01:09.567Z,14.1051
2019-04-23T08:02:26.149Z,14.1745
2019-04-23T08:03:43.574Z,14.3027
2019-04-23T08:04:42.571Z,14.3587
2019-04-23T08:05:59.406Z,14.3721
2019-04-23T08:06:52.417Z,14.3587
2019-04-23T08:08:01.649Z,14.4575
2019-04-23T08:09:15.888Z,14.5884
2019-04-23T08:10:14.200Z,14.6284
2019-04-23T08:11:35.888Z,14.7993
2019-04-23T08:12:46.939Z,14.8421
2019-04-23T08:13:55.553Z,14.8554
2019-04-23T08:14:53.540Z,14.7993
2019-04-23T08:15:58.561Z,14.7139
2019-04-23T08:17:07.097Z,14.7700
2019-04-23T08:18:26.295Z,14.8127
2019-04-23T08:19:24.560Z,15.0397
2019-04-23T08:20:46.961Z,15.1812
2019-04-23T08:21:32.022Z,15.1679
2019-04-23T08:22:45.807Z,15.3788
2019-04-23T08:23:58.598Z,15.6191
2019-04-23T08:26:23.888Z,15.4643
2019-04-23T08:28:35.421Z,15.5631
2019-04-23T08:29:28.015Z,15.8167
2019-04-23T08:31:52.840Z,15.8301
2019-04-23T08:33:00.308Z,15.8888
2019-04-23T08:34:17.013Z,16.1025
2019-04-23T08:35:33.965Z,16.3134
2019-04-23T08:36:27.261Z,16.1158
2019-04-23T08:37:47.868Z,16.3829
2019-04-23T08:39:46.990Z,16.2573
2019-04-23T08:41:12.864Z,16.2280
2019-04-23T08:42:27.309Z,16.4549
2019-04-23T08:43:19.391Z,16.4549
2019-04-23T08:46:51.996Z,16.8368
2019-04-23T08:47:50.686Z,17.0344
2019-04-23T08:49:00.805Z,16.9650
2019-04-23T08:50:04.326Z,16.8368
2019-04-23T08:51:25.973Z,17.1199
2019-04-23T08:52:18.251Z,17.3468
2019-04-23T08:53:37.557Z,17.8836
2019-04-23T08:55:53.925Z,17.4884
2019-04-23T08:56:55.151Z,17.4323
2019-04-23T08:57:56.124Z,17.2774
2019-04-23T08:59:21.332Z,17.1759
2019-04-23T09:00:20.663Z,17.0638
2019-04-23T09:01:24.881Z,17.0478
2019-04-23T09:04:55.423Z,17.0211
2019-04-23T09:06:11.804Z,16.8101
2019-04-23T09:07:12.883Z,17.1065
2019-04-23T09:08:20.347Z,17.3629
2019-04-23T09:09:27.151Z,17.8836
2019-04-23T09:10:36.060Z,17.8141
2019-04-23T09:16:05.248Z,18.5645
2019-04-23T09:18:23.061Z,18.3509
2019-04-23T09:19:41.218Z,18.3108
2019-04-23T09:20:30.647Z,18.4791
2019-04-23T09:21:50.370Z,18.3669
2019-04-23T09:22:53.043Z,18.5351
2019-04-23T09:24:07.290Z,18.4230
2019-04-23T09:25:23.131Z,18.4230
2019-04-23T09:26:07.985Z,18.3803
2019-04-23T09:27:41.435Z,18.3936
2019-04-23T09:28:45.739Z,18.0705
2019-04-23T09:29:52.914Z,17.9850
2019-04-23T09:30:57.488Z,17.9557
2019-04-23T09:33:13.931Z,17.9557
2019-04-23T09:34:19.344Z,17.9984
2019-04-23T09:35:27.435Z,17.9290
2019-04-23T09:36:37.966Z,17.8141
2019-04-23T09:38:54.101Z,17.6726
2019-04-23T09:39:58.857Z,17.5177
2019-04-23T09:41:22.326Z,17.4617
2019-04-23T09:42:19.502Z,17.4456
2019-04-23T09:43:22.927Z,17.4750
2019-04-23T09:45:41.209Z,17.5605
2019-04-23T09:46:55.756Z,17.6005
2019-04-23T09:49:16.226Z,17.6432
2019-04-23T09:50:15.695Z,17.7421
2019-04-23T09:51:25.492Z,17.8569
2019-04-23T09:52:30.941Z,17.7421
2019-04-23T09:53:33.926Z,17.7153
2019-04-23T09:54:49.587Z,17.8141
2019-04-23T09:55:49.860Z,17.8275
2019-04-23T09:56:57.040Z,17.8275
2019-04-23T09:58:11.639Z,17.7848
2019-04-23T09:59:28.625Z,17.8569
2019-04-23T10:00:31.507Z,17.8969
2019-04-23T10:01:29.207Z,17.9984
2019-04-23T10:02:29.155Z,18.1693
2019-04-23T10:03:39.046Z,18.2521
2019-04-23T10:04:46.312Z,18.1132
2019-04-23T10:05:50.574Z,18.0972
2019-04-23T10:07:00.273Z,18.1693
2019-04-23T10:08:04.136Z,18.0278
2019-04-23T10:09:05.463Z,17.9984
2019-04-23T10:10:10.301Z,17.9290
2019-04-23T10:11:13.797Z,18.0278
2019-04-23T10:12:17.624Z,18.1399
2019-04-23T10:13:20.180Z,18.3375
2019-04-23T10:14:24.143Z,18.1399
2019-04-23T10:15:34.349Z,18.2120
2019-04-23T10:16:43.171Z,18.0545
2019-04-23T10:17:46.459Z,18.0144
2019-04-23T10:18:49.228Z,18.0839
2019-04-23T10:19:53.007Z,18.1399
2019-04-23T10:20:56.537Z,18.3669
2019-04-23T10:21:59.844Z,18.4230
2019-04-23T10:23:04.213Z,18.5912
2019-04-23T10:24:07.584Z,18.5218
2019-04-23T10:25:10.999Z,18.1960
2019-04-23T10:26:14.396Z,18.4924
2019-04-23T10:27:18.770Z,18.4924
2019-04-23T10:28:22.970Z,18.4363
2019-04-23T10:29:27.740Z,18.6072
2019-04-23T10:30:29.179Z,18.6793
2019-04-23T10:31:33.480Z,18.5912
2019-04-23T10:32:37.764Z,18.6660
2019-04-23T10:33:40.199Z,18.7915
2019-04-23T10:34:53.506Z,18.8209
2019-04-23T10:35:56.995Z,18.7488
2019-04-23T10:36:59.637Z,19.0318
2019-04-23T10:38:06.594Z,19.1306
2019-04-23T10:39:17.830Z,19.3149
2019-04-23T10:40:25.486Z,19.3149
2019-04-23T10:41:27.749Z,19.7662
2019-04-23T10:42:34.062Z,19.9504
2019-04-23T10:43:42.139Z,19.7662
2019-04-23T10:44:50.410Z,19.8383
2019-04-23T10:46:15.429Z,19.8943
2019-04-23T10:47:32.330Z,19.4430
2019-04-23T10:48:47.671Z,19.1306
2019-04-23T10:49:52.941Z,19.0585
2019-04-23T10:51:00.326Z,18.7915
2019-04-23T10:52:19.072Z,18.9757
2019-04-23T10:54:32.998Z,19.0318
2019-04-23T10:55:34.567Z,19.1012
2019-04-23T10:56:43.351Z,19.1306
2019-04-23T10:57:39.257Z,19.5418
2019-04-23T10:58:45.830Z,19.6967
2019-04-23T10:59:53.590Z,19.6273
2019-04-23T11:03:42.424Z,19.7261
2019-04-23T11:04:47.632Z,19.8650
2019-04-23T11:05:55.202Z,19.8943
2019-04-23T11:06:49.985Z,19.7662
2019-04-23T11:07:53.614Z,19.6967
2019-04-23T11:09:25.525Z,19.5846
2019-04-23T11:10:17.440Z,19.8089
2019-04-23T11:11:32.346Z,20.1640
2019-04-23T11:13:38.022Z,20.4604
2019-04-23T11:14:49.811Z,20.8583
2019-04-23T11:16:21.573Z,21.0559
2019-04-23T11:17:04.278Z,21.3123
2019-04-23T11:18:04.158Z,21.3977
2019-04-23T11:19:25.580Z,21.2429
2019-04-23T11:22:45.168Z,21.4111
2019-04-23T11:24:20.726Z,21.9772
2019-04-23T11:25:15.130Z,21.3684
2019-04-23T11:26:15.584Z,21.2856
2019-04-23T11:27:22.321Z,20.7595
2019-04-23T11:28:27.848Z,20.9705
2019-04-23T11:29:40.482Z,21.2268
2019-04-23T11:31:55.266Z,22.2202
2019-04-23T11:33:15.709Z,22.3190
2019-04-23T11:34:20.295Z,22.0066
2019-04-23T11:35:42.466Z,22.4044
2019-04-23T11:37:53.370Z,22.0626
2019-04-23T11:38:56.099Z,22.1508
2019-04-23T11:39:51.606Z,21.9638
2019-04-23T11:40:59.957Z,22.0493
2019-04-23T11:44:26.391Z,21.7235
2019-04-23T11:46:54.021Z,21.4538
2019-04-23T11:49:22.564Z,21.0693
2019-04-23T11:52:30.612Z,20.4044
2019-04-23T11:53:36.046Z,20.4765
2019-04-23T11:54:35.547Z,20.5779
2019-04-23T11:58:16.660Z,20.4898
2019-04-23T11:59:19.058Z,20.5592
2019-04-23T12:01:42.211Z,20.5325
2019-04-23T12:02:40.073Z,20.7889
2019-04-23T12:03:58.646Z,20.9438
2019-04-23T12:05:05.494Z,20.8022
2019-04-23T12:06:07.159Z,20.6741
2019-04-23T12:07:09.115Z,20.8717
2019-04-23T12:08:26.673Z,20.7034
2019-04-23T12:09:40.082Z,20.7595
2019-04-23T12:10:37.721Z,20.9705
2019-04-23T12:12:44.803Z,21.1574
2019-04-23T12:14:03.709Z,21.4111
2019-04-23T12:15:15.336Z,21.4111
2019-04-23T12:16:20.562Z,21.5099
2019-04-23T12:17:31.734Z,21.4832
2019-04-23T12:20:57.556Z,21.6968
2019-04-23T12:22:01.399Z,21.9371
2019-04-23T12:23:19.383Z,22.2763
2019-04-23T12:24:21.889Z,22.6741
2019-04-23T12:25:25.128Z,22.8450
2019-04-23T12:27:31.481Z,23.0854
2019-04-23T12:28:46.976Z,23.2269
2019-04-23T12:30:08.641Z,23.1708
2019-04-23T12:31:02.742Z,23.0266
2019-04-23T12:32:24.055Z,22.1935
2019-04-23T12:33:28.162Z,22.1347
2019-04-23T12:34:30.007Z,22.0359
2019-04-23T12:35:29.023Z,21.9932
2019-04-23T12:36:44.139Z,22.0947
2019-04-23T12:37:49.381Z,21.8090
2019-04-23T12:39:05.389Z,22.2763
2019-04-23T12:41:12.841Z,22.4472
2019-04-23T12:42:45.207Z,22.3190
2019-04-23T12:43:25.452Z,22.5299
2019-04-23T12:44:44.196Z,22.3751
2019-04-23T12:47:05.371Z,22.1080
2019-04-23T12:48:09.605Z,22.2923
2019-04-23T12:49:20.541Z,21.9505
2019-04-23T12:50:41.811Z,22.1508
2019-04-23T12:51:38.078Z,22.1935
2019-04-23T12:54:01.395Z,22.3056
2019-04-23T12:56:21.334Z,22.6875
2019-04-23T12:58:15.741Z,22.6314
2019-04-23T12:59:27.232Z,22.3056
2019-04-23T13:00:35.825Z,22.2335
2019-04-23T13:01:42.702Z,22.1080
2019-04-23T13:02:48.574Z,22.4472
2019-04-23T13:03:50.582Z,22.5593
2019-04-23T13:05:23.157Z,22.6314
2019-04-23T13:06:09.547Z,22.8157
2019-04-23T13:07:26.074Z,22.4899
2019-04-23T13:08:41.566Z,22.8717
2019-04-23T13:10:45.322Z,23.3684
2019-04-23T13:12:05.676Z,23.2002
2019-04-23T13:13:09.318Z,23.2002
2019-04-23T13:14:17.376Z,22.9706
2019-04-23T13:16:37.674Z,23.4112
2019-04-23T13:17:48.935Z,23.1708
2019-04-23T13:18:46.754Z,23.2830
2019-04-23T13:19:58.267Z,23.3551
2019-04-23T13:21:00.031Z,23.4672
2019-04-23T13:23:34.542Z,23.3978
2019-04-23T13:24:26.546Z,22.8290
2019-04-23T13:26:40.086Z,22.6181
2019-04-23T13:28:01.902Z,22.6474
2019-04-23T13:29:05.039Z,22.6181
2019-04-23T13:30:08.632Z,22.7302
2019-04-23T13:32:32.704Z,22.6314
2019-04-23T13:34:49.937Z,22.5460
2019-04-23T13:35:53.282Z,22.9011
2019-04-23T13:37:08.300Z,22.4178
2019-04-23T13:38:10.402Z,22.5299
2019-04-23T13:39:24.678Z,22.8023
2019-04-23T13:40:27.739Z,22.4605
2019-04-23T13:41:23.134Z,22.5032
2019-04-23T13:42:52.541Z,22.5460
2019-04-23T13:43:54.842Z,22.4178
2019-04-23T13:44:54.789Z,22.5460
2019-04-23T13:46:10.011Z,22.7302
2019-04-23T13:47:21.976Z,22.5593
2019-04-23T13:49:31.552Z,22.5166
2019-04-23T13:50:43.294Z,22.5593
2019-04-23T13:51:43.505Z,22.6741
2019-04-23T13:53:15.296Z,22.7596
2019-04-23T13:54:17.343Z,22.9011
2019-04-23T13:55:09.206Z,22.8157
2019-04-23T13:56:29.700Z,23.0266
2019-04-23T13:57:59.220Z,23.4379
2019-04-23T13:58:36.316Z,23.0854
2019-04-23T13:59:44.467Z,23.3818
2019-04-23T14:01:01.262Z,22.7729
2019-04-23T14:02:08.198Z,22.5460
2019-04-23T14:03:09.795Z,22.3484
2019-04-23T14:04:21.329Z,22.2763
2019-04-23T14:05:26.753Z,22.3323
2019-04-23T14:06:36.694Z,22.2496
2019-04-23T14:07:48.326Z,22.4739
2019-04-23T14:10:08.627Z,23.0400
2019-04-23T14:11:13.370Z,22.7169
2019-04-23T14:12:18.226Z,22.9011
2019-04-23T14:13:39.332Z,22.9145
2019-04-23T14:15:47.653Z,22.8717
2019-04-23T14:16:56.191Z,22.9011
2019-04-23T14:18:10.468Z,22.7462
2019-04-23T14:19:02.325Z,22.8717
2019-04-23T14:20:13.797Z,22.4311
2019-04-23T14:22:51.128Z,22.5887
2019-04-23T14:23:57.794Z,22.3323
2019-04-23T14:24:59.251Z,22.1935
2019-04-23T14:27:01.164Z,22.1775
2019-04-23T14:29:21.636Z,22.5753
2019-04-23T14:30:39.024Z,22.7169
2019-04-23T14:32:01.294Z,22.4178
2019-04-23T14:32:48.717Z,22.3190
2019-04-23T14:34:01.311Z,22.4605
2019-04-23T14:35:11.479Z,22.3617
2019-04-23T14:36:07.662Z,22.3617
2019-04-23T14:39:41.073Z,22.5887
2019-04-23T14:40:43.156Z,22.8717
2019-04-23T14:41:54.163Z,22.6474
2019-04-23T14:43:15.122Z,22.7596
2019-04-23T14:44:10.757Z,22.6741
2019-04-23T14:45:33.862Z,22.8157
2019-04-23T14:48:00.853Z,22.9706
2019-04-23T14:48:39.071Z,23.0133
2019-04-23T14:49:58.874Z,22.8584
2019-04-23T14:51:00.071Z,22.5887
2019-04-23T14:53:26.093Z,22.4472
2019-04-23T14:54:24.832Z,22.5753
2019-04-23T14:55:48.965Z,22.4044
2019-04-23T14:56:52.607Z,22.5887
2019-04-23T14:57:55.854Z,23.1147
2019-04-23T15:00:03.206Z,23.2136
2019-04-23T15:03:26.728Z,22.8717
2019-04-23T15:04:32.007Z,22.7169
2019-04-23T15:05:51.778Z,22.7729
2019-04-23T15:07:58.065Z,22.7596
2019-04-23T15:09:19.659Z,22.8157
2019-04-23T15:10:32.629Z,22.9999
2019-04-23T15:11:29.495Z,23.0266
2019-04-23T15:12:38.126Z,22.9839
2019-04-23T15:15:02.578Z,23.5687
2019-04-23T15:16:09.791Z,23.5233
2019-04-23T15:17:12.686Z,23.6942
2019-04-23T15:18:25.267Z,23.7530
2019-04-23T15:20:42.339Z,23.3818
2019-04-23T15:25:21.579Z,22.8717
2019-04-23T15:27:02.529Z,23.2696
2019-04-23T15:28:09.161Z,23.4112
2019-04-23T15:29:27.836Z,23.4112
2019-04-23T15:30:45.949Z,23.3391
2019-04-23T15:32:03.196Z,23.3124
2019-04-23T15:33:11.790Z,23.0854
2019-04-23T15:34:13.998Z,22.9999
2019-04-23T15:35:31.589Z,22.8584
2019-04-23T15:36:41.546Z,22.9438
2019-04-23T15:38:53.826Z,22.8023
2019-04-23T15:41:08.298Z,23.2403
2019-04-23T15:42:26.425Z,23.4112
2019-04-23T15:43:14.475Z,23.7530
2019-04-23T15:44:16.373Z,23.5527
2019-04-23T15:45:42.260Z,23.5527
2019-04-23T15:48:00.583Z,23.3124
2019-04-23T15:49:07.935Z,23.3551
2019-04-23T15:50:21.488Z,23.6114
2019-04-23T15:51:20.132Z,23.5367
2019-04-23T15:52:30.230Z,23.7236
2019-04-23T15:53:26.649Z,23.4939
2019-04-23T15:54:43.047Z,23.4112
2019-04-23T15:55:55.452Z,23.3684
2019-04-23T15:57:01.187Z,23.3257
2019-04-23T16:00:17.829Z,22.7302
2019-04-23T16:01:39.556Z,22.6741
2019-04-23T16:02:09.706Z,22.4311
2019-04-23T16:03:13.589Z,22.9278
2019-04-23T16:04:19.822Z,23.0266
2019-04-23T16:05:25.751Z,22.9839
2019-04-23T16:06:32.723Z,22.8290
2019-04-23T16:07:54.885Z,22.7035
2019-04-23T16:09:06.477Z,22.7462
2019-04-23T16:10:26.168Z,22.9145
2019-04-23T16:12:45.662Z,22.5299
2019-04-23T16:14:04.754Z,22.7169
2019-04-23T16:15:03.020Z,22.3484
2019-04-23T16:16:07.683Z,22.3056
2019-04-23T16:17:13.823Z,22.1347
2019-04-23T16:18:28.190Z,22.0947
2019-04-23T16:19:25.198Z,22.1214
2019-04-23T16:20:39.914Z,22.3617
2019-04-23T16:23:04.709Z,22.3484
2019-04-23T16:24:06.073Z,22.0787
2019-04-23T16:25:20.607Z,21.9078
2019-04-23T16:26:32.651Z,21.7796
2019-04-23T16:27:31.947Z,21.5099
2019-04-23T16:29:00.793Z,21.4405
2019-04-23T16:31:09.450Z,21.3550
2019-04-23T16:32:10.046Z,21.3256
2019-04-23T16:34:27.109Z,21.6114
2019-04-23T16:35:34.585Z,21.5980
2019-04-23T16:36:41.520Z,21.5980
2019-04-23T16:37:49.213Z,21.5660
2019-04-23T16:38:54.950Z,21.8223
2019-04-23T16:41:09.929Z,21.7102
2019-04-23T16:42:17.501Z,21.8650
2019-04-23T16:43:19.949Z,21.7395
2019-04-23T16:44:38.187Z,21.9505
2019-04-23T16:45:38.377Z,21.7529
2019-04-23T16:48:09.232Z,21.9371
2019-04-23T16:49:15.545Z,22.2629
2019-04-23T16:51:16.486Z,22.0199
2019-04-23T16:52:26.488Z,22.0787
2019-04-23T16:53:31.481Z,22.1935
2019-04-23T16:54:55.030Z,21.9932
2019-04-23T16:56:05.186Z,21.9078